Time;durP1;ratioP1;P1;durP2;ratioP2;P2;SDS_P1;SDS_P2;PMS_P1;PMS_P2;Temp;Humidity;BMP_temperature;BMP_pressure;BME280_temperature;BME280_humidity;BME280_pressure;Samples;Min_cycle;Max_cycle;Signal;HPM_P1;HPM_P2
2021/10/30 00:00:46;;;;;;;22.20;13.40;;;;;;;3.99;74.24;98151.02;116787;1179;59175;-68
2021/10/30 00:03:16;;;;;;;22.30;12.80;;;;;;;4.00;74.27;98150.26;116762;1179;69820;-68
2021/10/30 00:05:46;;;;;;;21.90;13.40;;;;;;;4.02;74.38;98150.97;116674;1180;68426;-65
2021/10/30 00:08:16;;;;;;;24.20;13.30;;;;;;;4.05;74.27;98151.38;116500;1180;69283;-66
2021/10/30 00:10:46;;;;;;;23.90;13.70;;;;;;;4.01;74.59;98153.79;116544;1179;58755;-66
2021/10/30 00:13:16;;;;;;;28.90;14.70;;;;;;;3.96;74.06;98153.66;116629;1180;58716;-66
2021/10/30 00:15:46;;;;;;;24.80;14.10;;;;;;;3.91;74.74;98150.64;116632;1180;69806;-66
2021/10/30 00:18:16;;;;;;;26.80;14.20;;;;;;;3.87;75.03;98151.47;116517;1179;68388;-67
2021/10/30 00:20:45;;;;;;;21.40;12.30;;;;;;;3.80;75.18;98151.40;116661;1181;68496;-66
2021/10/30 00:23:16;;;;;;;;;;;;;;;3.70;75.83;98154.98;116670;1179;58816;-66
2021/10/30 00:25:46;;;;;;;26.20;14.40;;;;;;;3.54;74.89;98154.29;116574;1171;58735;-66
2021/10/30 00:28:16;;;;;;;31.90;17.20;;;;;;;3.42;75.24;98150.82;116737;1180;69070;-66
2021/10/30 00:30:45;;;;;;;28.20;17.20;;;;;;;3.43;76.15;98149.25;116692;1179;68279;-67
2021/10/30 00:33:16;;;;;;;27.50;16.90;;;;;;;3.50;76.91;98150.58;116611;1179;68520;-67
2021/10/30 00:35:46;;;;;;;35.50;19.10;;;;;;;3.57;77.58;98149.39;116506;1180;58775;-66
2021/10/30 00:38:16;;;;;;;25.50;16.00;;;;;;;3.62;77.76;98149.84;116768;1178;58748;-67
2021/10/30 00:40:46;;;;;;;35.10;17.20;;;;;;;3.63;78.78;98141.56;116669;1179;70393;-67
2021/10/30 00:43:16;;;;;;;28.20;16.40;;;;;;;3.66;77.91;98142.04;116570;1180;67742;-67
2021/10/30 00:45:47;;;;;;;27.10;14.60;;;;;;;3.72;77.79;98139.66;116615;1181;68321;-67
2021/10/30 00:48:16;;;;;;;;;;;;;;;3.81;77.64;98143.13;116702;1179;58737;-67
2021/10/30 00:50:46;;;;;;;23.40;13.70;;;;;;;3.81;77.26;98142.27;116823;1179;58738;-68
2021/10/30 00:53:17;;;;;;;25.70;15.00;;;;;;;3.77;77.02;98140.81;116523;1179;69797;-67
2021/10/30 00:55:48;;;;;;;23.40;14.70;;;;;;;3.72;76.81;98137.64;116619;1181;67680;-67
2021/10/30 00:58:20;;;;;;;23.20;14.40;;;;;;;3.68;77.05;98141.59;116606;1180;69252;-67
2021/10/30 01:00:51;;;;;;;23.50;14.60;;;;;;;3.60;76.91;98137.92;116787;1179;58724;-67
2021/10/30 01:03:22;;;;;;;26.70;15.40;;;;;;;3.53;76.73;98140.04;116704;1179;58732;-67
2021/10/30 01:05:52;;;;;;;;;;;;;;;3.47;76.65;98138.11;116684;1181;70543;-67
2021/10/30 01:08:22;;;;;;;30.00;15.50;;;;;;;3.43;76.66;98140.02;116608;1180;68302;-67
2021/10/30 01:10:53;;;;;;;;;;;;;;;3.40;77.21;98144.44;116654;1181;69473;-67
2021/10/30 01:13:23;;;;;;;29.70;14.50;;;;;;;3.38;76.68;98136.84;116778;1179;58707;-67
2021/10/30 01:15:53;;;;;;;22.70;14.90;;;;;;;3.38;76.59;98140.04;116835;1171;58735;-67
2021/10/30 01:18:23;;;;;;;29.30;15.40;;;;;;;3.36;76.49;98140.80;116660;1180;70506;-67
2021/10/30 01:20:53;;;;;;;26.80;14.30;;;;;;;3.32;76.72;98144.91;116757;1179;67662;-68
2021/10/30 01:23:23;;;;;;;25.60;14.80;;;;;;;3.30;76.42;98141.29;116733;1179;69114;-67
2021/10/30 01:26:01;;;;;;;26.00;15.30;;;;;;;3.30;77.17;98140.98;116810;1178;58744;-68
2021/10/30 01:28:35;;;;;;;27.60;15.50;;;;;;;3.36;76.97;98138.22;116807;1179;58752;-68
2021/10/30 01:31:04;;;;;;;30.80;17.80;;;;;;;3.39;77.11;98134.09;116579;1180;70588;-68
2021/10/30 01:33:34;;;;;;;26.20;14.70;;;;;;;3.31;77.69;98135.68;116828;1179;67698;-66
2021/10/30 01:36:08;;;;;;;27.90;16.00;;;;;;;3.23;77.82;98135.51;116482;1180;69234;-67
2021/10/30 01:38:39;;;;;;;25.80;14.90;;;;;;;3.14;77.25;98133.84;116890;1179;58656;-67
2021/10/30 01:41:09;;;;;;;25.10;15.00;;;;;;;3.08;77.47;98132.92;116823;1179;59145;-67
2021/10/30 01:43:39;;;;;;;27.60;14.60;;;;;;;3.03;77.42;98134.80;116592;1180;70799;-67
2021/10/30 01:46:10;;;;;;;24.00;15.20;;;;;;;3.00;77.06;98134.38;116822;1179;68337;-67
2021/10/30 01:48:41;;;;;;;25.90;14.00;;;;;;;2.96;77.27;98134.89;116813;1179;67410;-67
2021/10/30 01:51:11;;;;;;;25.00;14.30;;;;;;;2.94;77.17;98136.59;116578;1173;58739;-67
2021/10/30 01:53:42;;;;;;;24.50;14.90;;;;;;;2.92;77.05;98135.33;116732;1181;58725;-67
2021/10/30 01:56:13;;;;;;;22.30;14.20;;;;;;;2.93;77.53;98136.42;116658;1181;70599;-67
2021/10/30 01:58:43;;;;;;;25.10;15.00;;;;;;;2.93;77.15;98140.48;116805;1179;67863;-67
2021/10/30 02:01:13;;;;;;;27.40;15.00;;;;;;;2.93;77.10;98139.23;116678;1181;68295;-67
2021/10/30 02:03:44;;;;;;;24.40;14.50;;;;;;;2.92;78.04;98140.24;116628;1179;58734;-67
2021/10/30 02:06:15;;;;;;;25.40;14.50;;;;;;;2.90;77.86;98139.98;116815;1179;58817;-67
2021/10/30 02:08:44;;;;;;;27.00;15.50;;;;;;;2.91;79.31;98140.00;116653;1180;69805;-67
2021/10/30 02:11:14;;;;;;;27.00;14.40;;;;;;;2.95;80.19;98142.39;116709;1181;67649;-67
2021/10/30 02:13:45;;;;;;;24.20;14.10;;;;;;;2.97;79.68;98138.73;116600;1180;69240;-68
2021/10/30 02:16:15;;;;;;;22.80;14.60;;;;;;;2.93;79.72;98139.47;116807;1178;58743;-68
2021/10/30 02:18:45;;;;;;;26.50;14.70;;;;;;;2.96;79.81;98142.46;116646;1173;58727;-67
2021/10/30 02:21:14;;;;;;;24.50;14.70;;;;;;;3.07;80.64;98141.13;116722;1179;69890;-67
2021/10/30 02:23:43;;;;;;;25.80;14.20;;;;;;;3.18;80.66;98143.58;116819;1180;68440;-68
2021/10/30 02:26:13;;;;;;;22.50;14.10;;;;;;;3.20;80.06;98144.30;116602;1180;69179;-67
2021/10/30 02:28:46;;;;;;;22.20;13.20;;;;;;;3.12;80.03;98144.39;116811;1179;58745;-67
2021/10/30 02:31:17;;;;;;;25.00;14.20;;;;;;;3.00;79.73;98143.21;116666;1180;58738;-68
2021/10/30 02:33:47;;;;;;;25.10;13.70;;;;;;;2.85;79.26;98145.38;116844;1179;69628;-68
2021/10/30 02:36:17;;;;;;;24.70;15.00;;;;;;;2.70;79.41;98147.85;116825;1180;67635;-67
2021/10/30 02:38:47;;;;;;;23.60;14.30;;;;;;;2.62;79.65;98146.95;116582;1180;69257;-67
2021/10/30 02:41:16;;;;;;;24.10;14.30;;;;;;;2.55;80.28;98147.59;116658;1181;58792;-67
2021/10/30 02:43:46;;;;;;;23.30;13.70;;;;;;;2.50;80.25;98152.79;116643;1180;58743;-68
2021/10/30 02:46:16;;;;;;;26.60;15.10;;;;;;;2.43;81.04;98151.69;116818;1180;70561;-68
2021/10/30 02:48:45;;;;;;;25.70;16.90;;;;;;;2.38;80.01;98151.40;116650;1181;67830;-67
2021/10/30 02:51:15;;;;;;;24.20;15.20;;;;;;;2.38;79.86;98150.55;116657;1181;68287;-67
2021/10/30 02:53:45;;;;;;;22.60;13.20;;;;;;;2.39;80.71;98154.92;116638;1179;58747;-67
2021/10/30 02:56:15;;;;;;;21.60;14.00;;;;;;;2.38;81.24;98149.69;116626;1180;58693;-67
2021/10/30 02:58:46;;;;;;;22.80;14.00;;;;;;;2.36;80.19;98149.89;116634;1181;70688;-68
2021/10/30 03:01:16;;;;;;;26.50;14.60;;;;;;;2.33;80.09;98152.50;116607;1180;68458;-67
2021/10/30 03:03:45;;;;;;;24.90;15.20;;;;;;;2.32;80.53;98151.76;116680;1180;68288;-68
2021/10/30 03:06:16;;;;;;;27.30;15.30;;;;;;;2.31;80.81;98151.60;116611;1179;58775;-67
2021/10/30 03:08:47;;;;;;;25.40;16.00;;;;;;;2.35;82.59;98152.22;116620;1179;58753;-68
2021/10/30 03:11:17;;;;;;;24.90;15.00;;;;;;;2.38;80.94;98153.36;116650;1180;70529;-67
2021/10/30 03:13:47;;;;;;;27.00;15.30;;;;;;;2.44;80.86;98151.87;116813;1179;68432;-68
2021/10/30 03:16:18;;;;;;;31.80;18.70;;;;;;;2.48;80.39;98151.83;116756;1179;68791;-67
2021/10/30 03:18:49;;;;;;;32.20;17.80;;;;;;;2.59;81.02;98152.63;116780;1180;58721;-68
2021/10/30 03:21:19;;;;;;;26.00;16.50;;;;;;;2.70;81.20;98151.61;116698;1179;58747;-67
2021/10/30 03:23:50;;;;;;;27.70;16.20;;;;;;;2.76;81.14;98147.54;116629;1180;69823;-67
2021/10/30 03:26:19;;;;;;;24.50;14.70;;;;;;;2.79;81.43;98152.57;116658;1181;68392;-67
2021/10/30 03:28:49;;;;;;;24.90;15.60;;;;;;;2.85;82.32;98154.13;116624;1180;67699;-68
2021/10/30 03:31:18;;;;;;;25.10;16.30;;;;;;;2.93;82.60;98148.06;116581;1180;58753;-68
2021/10/30 03:33:48;;;;;;;27.60;15.70;;;;;;;3.02;82.90;98148.39;116524;1180;58719;-68
2021/10/30 03:36:18;;;;;;;23.30;13.80;;;;;;;3.09;82.75;98151.70;116515;1180;69809;-67
2021/10/30 03:38:47;;;;;;;24.10;14.60;;;;;;;3.10;82.31;98147.48;116580;1180;68441;-67
2021/10/30 03:41:19;;;;;;;23.30;15.40;;;;;;;3.11;82.09;98150.24;116791;1180;68597;-67
2021/10/30 03:43:48;;;;;;;26.80;14.70;;;;;;;3.11;82.35;98152.11;116801;1179;58805;-68
2021/10/30 03:46:18;;;;;;;23.20;14.80;;;;;;;2.93;80.86;98154.63;116665;1181;58794;-67
2021/10/30 03:48:47;;;;;;;30.70;16.00;;;;;;;2.68;81.38;98155.48;116800;1179;69385;-67
2021/10/30 03:51:17;;;;;;;37.60;20.70;;;;;;;2.57;81.25;98159.48;116697;1179;68651;-67
2021/10/30 03:53:46;;;;;;;31.60;19.10;;;;;;;2.38;80.36;98155.30;116616;1181;69066;-67
2021/10/30 03:56:16;;;;;;;29.70;17.00;;;;;;;2.16;80.49;98154.11;116784;1179;58719;-67
2021/10/30 03:58:45;;;;;;;23.20;14.80;;;;;;;1.98;82.05;98156.71;116727;1180;59181;-68
2021/10/30 04:01:15;;;;;;;26.40;16.60;;;;;;;1.90;82.53;98154.88;116640;1180;69851;-67
2021/10/30 04:03:44;;;;;;;27.60;16.10;;;;;;;1.87;82.66;98152.86;116814;1179;68319;-67
2021/10/30 04:06:14;;;;;;;31.80;17.40;;;;;;;1.86;82.55;98148.48;116611;1181;69096;-67
2021/10/30 04:08:44;;;;;;;30.90;18.10;;;;;;;1.80;82.42;98149.71;116787;1173;58744;-67
2021/10/30 04:11:16;;;;;;;29.40;18.30;;;;;;;1.65;81.48;98145.71;116671;1180;58748;-68
2021/10/30 04:13:50;;;;;;;27.80;16.70;;;;;;;1.54;83.24;98145.05;116756;1179;69665;-67
2021/10/30 04:16:20;;;;;;;34.80;16.60;;;;;;;1.51;82.52;98145.16;116699;1181;66942;-67
2021/10/30 04:18:49;;;;;;;30.90;16.40;;;;;;;1.52;82.55;98145.64;116781;1180;68565;-67
2021/10/30 04:21:18;;;;;;;32.60;19.00;;;;;;;1.56;84.73;98149.07;116758;1179;58751;-67
2021/10/30 04:23:47;;;;;;;28.30;15.80;;;;;;;1.53;83.73;98150.10;116705;1179;58711;-67
2021/10/30 04:26:16;;;;;;;29.40;18.60;;;;;;;1.52;82.99;98155.24;116757;1178;70644;-67
2021/10/30 04:28:46;;;;;;;27.80;17.30;;;;;;;1.54;83.20;98156.98;116793;1179;67894;-67
2021/10/30 04:31:22;;;;;;;30.80;18.10;;;;;;;1.55;83.19;98156.52;116606;1180;68785;-67
2021/10/30 04:33:54;;;;;;;26.50;17.00;;;;;;;1.54;82.60;98157.77;116777;1179;58750;-66
2021/10/30 04:36:25;;;;;;;28.70;18.30;;;;;;;1.58;82.57;98155.73;116855;1179;58733;-67
2021/10/30 04:38:55;;;;;;;30.90;17.80;;;;;;;1.62;83.05;98155.73;116667;1173;70638;-67
2021/10/30 04:41:25;;;;;;;25.90;17.00;;;;;;;1.61;82.77;98151.40;116577;1173;68548;-67
2021/10/30 04:43:54;;;;;;;27.90;17.00;;;;;;;1.59;83.53;98147.79;116652;1180;69847;-67
2021/10/30 04:46:24;;;;;;;32.20;19.30;;;;;;;1.61;82.63;98144.23;116772;1179;58781;-67
2021/10/30 04:48:53;;;;;;;47.00;30.60;;;;;;;1.71;82.89;98145.89;116847;1179;58767;-67
2021/10/30 04:51:22;;;;;;;39.80;26.70;;;;;;;1.77;82.80;98147.79;116671;1179;70706;-68
2021/10/30 04:53:51;;;;;;;35.20;23.00;;;;;;;1.81;82.70;98147.48;116586;1181;68458;-67
2021/10/30 04:56:20;;;;;;;33.40;19.70;;;;;;;1.79;82.94;98149.63;116713;1179;69388;-67
2021/10/30 04:58:49;;;;;;;30.60;19.60;;;;;;;1.75;83.31;98151.66;116724;1179;58711;-67
2021/10/30 05:01:18;;;;;;;34.10;20.10;;;;;;;1.72;83.01;98155.44;116604;1180;57967;-67
2021/10/30 05:03:48;;;;;;;32.40;21.80;;;;;;;1.70;82.98;98157.19;116854;1179;69994;-68
2021/10/30 05:06:17;;;;;;;36.20;21.50;;;;;;;1.68;82.85;98157.00;116662;1180;67760;-67
2021/10/30 05:08:46;;;;;;;36.70;21.70;;;;;;;1.66;82.52;98152.52;116721;1179;68530;-68
2021/10/30 05:11:15;;;;;;;29.00;19.40;;;;;;;1.65;83.30;98154.30;116679;1179;58702;-67
2021/10/30 05:13:44;;;;;;;34.40;22.60;;;;;;;1.62;82.89;98157.14;116595;1181;58731;-67
2021/10/30 05:16:13;;;;;;;36.90;21.70;;;;;;;1.61;83.80;98156.18;116694;1179;69915;-67
2021/10/30 05:18:42;;;;;;;28.90;18.00;;;;;;;1.60;83.48;98157.16;116650;1179;68930;-68
2021/10/30 05:21:11;;;;;;;30.40;18.00;;;;;;;1.59;83.01;98161.90;116693;1179;69190;-67
2021/10/30 05:23:40;;;;;;;29.60;17.00;;;;;;;1.57;82.73;98166.31;116665;1179;58716;-67
2021/10/30 05:26:09;;;;;;;28.00;17.80;;;;;;;1.58;82.48;98168.45;116811;1180;58724;-68
2021/10/30 05:28:38;;;;;;;29.30;17.90;;;;;;;1.61;82.51;98171.61;116797;1179;70633;-67
2021/10/30 05:31:07;;;;;;;28.90;18.30;;;;;;;1.66;82.62;98176.16;116681;1179;67645;-67
2021/10/30 05:33:36;;;;;;;33.70;20.40;;;;;;;1.68;82.70;98172.54;116567;1180;69332;-67
2021/10/30 05:36:26;;;;;;;30.10;19.00;;;;;;;1.75;82.78;98173.04;116798;1179;58694;-67
2021/10/30 05:39:06;;;;;;;38.30;22.30;;;;;;;1.81;83.42;98174.09;116666;1179;58738;-67
2021/10/30 05:41:35;;;;;;;33.90;20.40;;;;;;;1.83;83.76;98174.66;116705;1179;70649;-67
2021/10/30 05:44:04;;;;;;;32.40;20.50;;;;;;;1.82;83.10;98172.23;116729;1179;68409;-67
2021/10/30 05:46:36;;;;;;;31.50;18.30;;;;;;;1.79;82.36;98169.68;116790;1179;69244;-67
2021/10/30 05:49:06;;;;;;;32.60;20.00;;;;;;;1.78;81.93;98170.66;116836;1179;58736;-67
2021/10/30 05:51:36;;;;;;;30.10;21.00;;;;;;;1.81;81.96;98174.95;116651;1180;58760;-67
2021/10/30 05:54:05;;;;;;;44.80;26.10;;;;;;;1.84;82.02;98174.38;116774;1179;71027;-67
2021/10/30 05:56:34;;;;;;;41.10;26.50;;;;;;;1.90;82.22;98179.08;116718;1179;68000;-67
2021/10/30 05:59:03;;;;;;;35.40;21.00;;;;;;;1.97;81.93;98186.66;116810;1180;69447;-67
2021/10/30 06:01:33;;;;;;;36.70;23.00;;;;;;;2.04;82.18;98191.41;116835;1178;58672;-67
2021/10/30 06:04:02;;;;;;;34.60;20.10;;;;;;;2.10;81.82;98190.32;116879;1179;58790;-67
2021/10/30 06:06:31;;;;;;;28.40;17.40;;;;;;;2.19;82.01;98191.87;116840;1173;70611;-67
2021/10/30 06:09:00;;;;;;;33.30;21.90;;;;;;;2.26;81.84;98190.34;116636;1179;67708;-67
2021/10/30 06:11:30;;;;;;;28.50;18.60;;;;;;;2.38;81.76;98187.48;116834;1179;69345;-67
2021/10/30 06:13:59;;;;;;;35.90;22.40;;;;;;;2.53;81.64;98189.41;116578;1180;58741;-67
2021/10/30 06:16:29;;;;;;;34.40;20.70;;;;;;;2.80;81.36;98189.31;116661;1179;58749;-67
2021/10/30 06:18:57;;;;;;;33.70;20.20;;;;;;;3.26;81.02;98190.37;116629;1181;70514;-67
2021/10/30 06:21:27;;;;;;;32.40;19.70;;;;;;;3.87;80.96;98191.70;116835;1179;69101;-67
2021/10/30 06:23:59;;;;;;;43.10;24.90;;;;;;;4.51;79.78;98190.80;116779;1179;69389;-68
2021/10/30 06:26:28;;;;;;;58.00;33.10;;;;;;;5.20;77.91;98195.88;116832;1179;58671;-68
2021/10/30 06:28:57;;;;;;;65.60;34.10;;;;;;;5.86;76.22;98195.85;116653;1179;58738;-67
2021/10/30 06:31:26;;;;;;;64.40;35.10;;;;;;;6.55;76.58;98193.44;116782;1179;71139;-66
2021/10/30 06:33:55;;;;;;;65.20;36.30;;;;;;;7.24;72.65;98195.45;116574;1180;67809;-67
2021/10/30 06:36:24;;;;;;;61.40;36.30;;;;;;;7.88;72.43;98195.61;116574;1173;69043;-67
2021/10/30 06:38:57;;;;;;;63.00;35.50;;;;;;;8.43;64.68;98192.45;116567;1181;58722;-68
2021/10/30 06:41:48;;;;;;;59.50;36.80;;;;;;;8.88;60.19;98185.73;116754;1170;58751;-68
2021/10/30 06:44:19;;;;;;;64.20;38.60;;;;;;;9.33;59.22;98186.06;116771;1179;70594;-68
2021/10/30 06:46:50;;;;;;;67.10;41.00;;;;;;;9.67;57.51;98189.13;116769;1178;67772;-68
2021/10/30 06:49:20;;;;;;;62.50;39.40;;;;;;;9.72;55.72;98183.27;116661;1180;69285;-68
2021/10/30 06:51:51;;;;;;;65.50;37.90;;;;;;;10.09;55.07;98182.02;116851;1179;58685;-68
2021/10/30 06:54:20;;;;;;;59.60;37.50;;;;;;;10.44;53.99;98180.70;116683;1179;58750;-68
2021/10/30 06:56:49;;;;;;;67.10;41.10;;;;;;;10.79;53.20;98180.96;116809;1179;70358;-68
2021/10/30 06:59:18;;;;;;;82.90;46.20;;;;;;;11.23;52.61;98182.58;116825;1179;68437;-68
2021/10/30 07:01:47;;;;;;;90.70;55.10;;;;;;;11.76;52.39;98184.58;116782;1179;69436;-68
2021/10/30 07:04:16;;;;;;;82.90;51.70;;;;;;;12.13;48.73;98176.61;116801;1179;58710;-68
2021/10/30 07:06:45;;;;;;;77.00;50.50;;;;;;;12.32;48.45;98175.19;116809;1177;58746;-68
2021/10/30 07:09:14;;;;;;;92.20;52.30;;;;;;;12.66;49.13;98180.13;116787;1179;70601;-68
2021/10/30 07:11:44;;;;;;;96.30;54.50;;;;;;;12.74;48.69;98179.70;116656;1179;67642;-68
2021/10/30 07:14:13;;;;;;;;;;;;;;;13.48;47.98;98177.68;116738;1180;69272;-68
2021/10/30 07:16:42;;;;;;;76.10;49.00;;;;;;;13.30;47.36;98178.43;116778;1179;58736;-68
2021/10/30 07:19:11;;;;;;;71.40;46.40;;;;;;;13.58;47.18;98177.70;116827;1179;58687;-68
2021/10/30 07:21:40;;;;;;;67.40;46.30;;;;;;;13.63;47.69;98176.52;116836;1179;70668;-68
2021/10/30 07:24:09;;;;;;;64.20;46.60;;;;;;;13.94;46.95;98181.55;116737;1178;67734;-69
2021/10/30 07:26:38;;;;;;;55.70;42.30;;;;;;;14.56;46.18;98178.07;116703;1179;69040;-68
2021/10/30 07:29:07;;;;;;;52.40;37.40;;;;;;;15.11;45.57;98179.29;116768;1170;58718;-68
2021/10/30 07:31:36;;;;;;;43.00;27.90;;;;;;;15.39;44.74;98180.77;116840;1179;58747;-68
2021/10/30 07:34:05;;;;;;;48.80;28.10;;;;;;;15.99;43.99;98178.89;116636;1181;69940;-69
2021/10/30 07:36:34;;;;;;;34.70;20.10;;;;;;;15.54;44.77;98179.84;116837;1179;67767;-68
2021/10/30 07:39:03;;;;;;;48.20;36.80;;;;;;;16.48;42.09;98172.34;116701;1178;69358;-68
2021/10/30 07:41:32;;;;;;;35.60;23.40;;;;;;;16.94;41.59;98174.43;116700;1179;58723;-68
2021/10/30 07:44:01;;;;;;;73.20;59.80;;;;;;;17.13;41.44;98167.75;116740;1179;58808;-68
2021/10/30 07:46:31;;;;;;;30.60;19.60;;;;;;;17.31;41.01;98167.17;116814;1180;69903;-68
2021/10/30 07:49:00;;;;;;;29.00;20.40;;;;;;;17.99;39.73;98163.77;116821;1180;68364;-69
2021/10/30 07:51:29;;;;;;;19.90;15.00;;;;;;;18.46;37.81;98156.46;116730;1178;69317;-68
2021/10/30 07:53:58;;;;;;;19.90;15.80;;;;;;;18.39;37.67;98159.93;116738;1178;58814;-69
2021/10/30 07:56:28;;;;;;;27.10;22.10;;;;;;;18.63;37.28;98156.41;116832;1179;58759;-69
2021/10/30 07:58:57;;;;;;;20.40;13.50;;;;;;;18.81;36.61;98154.70;116842;1179;71262;-69
2021/10/30 08:01:26;;;;;;;22.70;14.10;;;;;;;18.79;36.06;98154.20;116799;1180;69099;-69
2021/10/30 08:03:55;;;;;;;18.30;13.50;;;;;;;18.69;35.84;98152.99;116715;1178;68598;-69
2021/10/30 08:06:24;;;;;;;20.20;13.60;;;;;;;18.35;36.39;98145.52;116785;1180;58737;-69
2021/10/30 08:08:53;;;;;;;24.00;13.40;;;;;;;18.20;36.35;98147.77;116610;1180;58694;-69
2021/10/30 08:11:22;;;;;;;22.30;13.80;;;;;;;18.22;36.50;98152.20;116686;1179;70667;-69
2021/10/30 08:13:51;;;;;;;20.40;14.20;;;;;;;18.25;36.55;98146.02;116686;1179;68981;-69
2021/10/30 08:16:19;;;;;;;17.00;13.60;;;;;;;18.04;36.77;98143.52;116748;1180;69669;-69
2021/10/30 08:18:49;;;;;;;17.50;13.20;;;;;;;18.22;36.47;98141.91;116496;1180;58820;-70
2021/10/30 08:21:19;;;;;;;20.40;13.60;;;;;;;18.35;36.38;98146.33;116600;1180;58732;-68
2021/10/30 08:23:49;;;;;;;15.70;11.80;;;;;;;18.69;36.38;98145.81;116677;1179;70583;-68
2021/10/30 08:26:23;;;;;;;19.30;13.00;;;;;;;18.88;35.93;98146.77;116549;1180;68419;-69
2021/10/30 08:28:52;;;;;;;20.20;13.50;;;;;;;19.39;35.23;98145.11;116596;1180;68654;-69
2021/10/30 08:31:21;;;;;;;17.40;12.10;;;;;;;19.71;34.16;98141.83;116565;1180;58831;-68
2021/10/30 08:33:52;;;;;;;21.40;12.90;;;;;;;19.82;34.11;98139.55;116721;1179;59166;-69
2021/10/30 08:36:21;;;;;;;19.60;12.70;;;;;;;20.23;33.84;98142.60;116536;1181;70648;-69
2021/10/30 08:38:50;;;;;;;19.70;13.40;;;;;;;20.53;32.83;98137.33;116663;1179;68404;-69
2021/10/30 08:41:20;;;;;;;17.80;13.70;;;;;;;20.81;32.29;98139.09;116555;1180;68791;-68
2021/10/30 08:43:49;;;;;;;24.30;13.40;;;;;;;21.03;31.98;98133.67;116555;1181;58709;-68
2021/10/30 08:46:18;;;;;;;16.10;12.60;;;;;;;21.38;31.77;98133.08;116632;1180;58700;-69
2021/10/30 08:48:48;;;;;;;18.30;12.00;;;;;;;21.72;30.70;98131.31;116482;1181;69807;-69
2021/10/30 08:51:16;;;;;;;20.70;13.20;;;;;;;22.12;30.03;98131.55;116638;1179;68449;-69
2021/10/30 08:53:45;;;;;;;16.40;12.20;;;;;;;22.21;29.40;98125.27;116542;1180;69579;-69
2021/10/30 08:56:14;;;;;;;17.80;12.90;;;;;;;21.94;29.26;98127.14;116651;1179;58745;-69
2021/10/30 08:58:43;;;;;;;16.70;12.20;;;;;;;21.73;29.65;98123.33;116586;1180;58750;-69
2021/10/30 09:01:12;;;;;;;14.50;11.60;;;;;;;21.35;29.93;98123.13;116593;1181;71650;-70
2021/10/30 09:03:42;;;;;;;17.00;12.00;;;;;;;21.35;30.48;98122.76;116546;1180;68571;-70
2021/10/30 09:06:11;;;;;;;18.60;12.70;;;;;;;21.26;30.26;98125.92;116599;1180;69194;-68
2021/10/30 09:08:40;;;;;;;18.40;11.70;;;;;;;21.18;30.59;98121.70;116553;1180;58713;-69
2021/10/30 09:11:09;;;;;;;24.30;13.00;;;;;;;21.13;30.57;98121.39;116735;1179;58861;-70
2021/10/30 09:13:39;;;;;;;;;;;;;;;21.36;30.28;98115.27;116761;1179;71064;-69
2021/10/30 09:16:09;;;;;;;21.10;14.20;;;;;;;21.28;30.32;98117.05;116716;1179;67914;-70
2021/10/30 09:18:40;;;;;;;18.70;12.90;;;;;;;20.88;30.55;98114.85;116814;1178;69280;-70
2021/10/30 09:21:15;;;;;;;20.50;13.00;;;;;;;20.88;31.06;98109.48;116805;1179;58817;-68
2021/10/30 09:23:58;;;;;;;16.90;12.30;;;;;;;21.25;30.44;98101.50;116802;1180;58751;-68
2021/10/30 09:26:31;;;;;;;15.30;12.20;;;;;;;21.51;29.94;98107.23;116733;1179;69975;-69
2021/10/30 09:29:06;;;;;;;20.90;12.70;;;;;;;21.68;29.94;98099.77;116830;1179;68408;-68
2021/10/30 09:31:34;;;;;;;19.50;12.30;;;;;;;22.08;29.62;98094.30;116770;1178;68471;-68
2021/10/30 09:34:08;;;;;;;19.60;13.10;;;;;;;22.10;29.00;98092.56;116646;1179;58759;-68
2021/10/30 09:36:41;;;;;;;17.90;13.20;;;;;;;21.99;29.31;98086.07;116598;1180;58711;-68
2021/10/30 09:39:13;;;;;;;20.30;12.90;;;;;;;21.76;29.70;98086.91;116873;1178;70581;-68
2021/10/30 09:41:45;;;;;;;20.80;13.30;;;;;;;22.36;29.31;98085.60;116843;1179;68449;-68
2021/10/30 09:44:17;;;;;;;19.90;13.00;;;;;;;22.61;28.62;98083.52;116649;1180;69922;-68
2021/10/30 09:46:46;;;;;;;18.80;12.10;;;;;;;23.12;28.53;98088.39;116846;1178;58671;-68
2021/10/30 09:49:18;;;;;;;16.00;11.60;;;;;;;23.52;27.39;98092.02;116734;1179;58742;-68
2021/10/30 09:52:08;;;;;;;18.10;11.70;;;;;;;23.60;27.17;98085.49;116799;1179;69716;-68
2021/10/30 09:54:38;;;;;;;;;;;;;;;24.02;26.65;98080.76;116769;1179;68035;-68
2021/10/30 09:57:12;;;;;;;;;;;;;;;24.22;26.18;98075.96;116786;1181;69228;-68
2021/10/30 09:59:42;;;;;;;15.90;10.70;;;;;;;24.13;25.90;98074.27;116697;1180;58812;-68
2021/10/30 10:02:12;;;;;;;16.10;10.80;;;;;;;24.11;26.13;98073.25;116883;1172;58748;-68
2021/10/30 10:04:42;;;;;;;16.20;10.60;;;;;;;24.43;25.59;98065.52;116689;1179;70563;-68
2021/10/30 10:07:11;;;;;;;;;;;;;;;24.20;25.84;98063.04;116759;1179;67614;-68
2021/10/30 10:09:40;;;;;;;16.60;10.90;;;;;;;24.24;25.80;98061.86;116811;1179;68439;-68
2021/10/30 10:12:13;;;;;;;16.70;10.30;;;;;;;24.27;25.49;98057.58;116797;1178;58758;-68
2021/10/30 10:14:43;;;;;;;13.60;9.70;;;;;;;24.36;25.70;98058.69;116759;1181;59210;-68
2021/10/30 10:17:12;;;;;;;15.40;10.40;;;;;;;24.80;25.31;98052.36;116706;1180;70570;-68
2021/10/30 10:19:42;;;;;;;13.90;9.60;;;;;;;25.12;24.84;98046.14;116704;1180;67645;-68
2021/10/30 10:22:11;;;;;;;17.90;9.70;;;;;;;25.53;24.45;98041.51;116797;1180;69140;-68
2021/10/30 10:24:41;;;;;;;12.50;9.10;;;;;;;24.87;24.71;98037.80;116867;1180;58702;-68
2021/10/30 10:27:10;;;;;;;13.50;9.80;;;;;;;25.05;24.50;98035.13;116788;1180;58696;-69
2021/10/30 10:29:42;;;;;;;12.40;9.30;;;;;;;24.80;24.88;98027.03;116732;1179;70530;-68
2021/10/30 10:32:23;;;;;;;13.80;9.00;;;;;;;25.14;24.65;98025.38;116834;1180;67415;-68
2021/10/30 10:35:04;;;;;;;15.20;9.20;;;;;;;25.01;24.60;98024.44;116569;1180;68258;-68
2021/10/30 10:37:45;;;;;;;13.70;9.20;;;;;;;25.18;24.44;98022.30;116773;1180;58769;-69
2021/10/30 10:40:31;;;;;;;13.50;9.50;;;;;;;25.76;23.71;98018.36;116692;1179;58751;-69
2021/10/30 10:43:00;;;;;;;13.50;9.50;;;;;;;25.59;24.08;98017.44;116813;1180;71262;-69
2021/10/30 10:45:48;;;;;;;13.20;8.70;;;;;;;25.65;23.73;98012.65;116742;1179;68541;-69
2021/10/30 10:48:22;;;;;;;12.10;7.90;;;;;;;25.96;23.07;98016.45;116846;1178;69957;-69
2021/10/30 10:50:52;;;;;;;12.00;8.30;;;;;;;25.81;23.73;98010.27;116832;1179;58740;-69
2021/10/30 10:53:23;;;;;;;12.10;8.20;;;;;;;26.06;22.94;98007.98;116738;1179;58759;-69
2021/10/30 10:55:53;;;;;;;14.60;9.00;;;;;;;26.32;22.66;98004.60;116706;1179;70617;-69
2021/10/30 10:58:22;;;;;;;9.90;8.00;;;;;;;26.19;22.77;97999.99;116765;1179;67890;-69
2021/10/30 11:01:07;;;;;;;12.80;8.30;;;;;;;26.19;22.88;97996.34;116726;1179;68713;-69
2021/10/30 11:03:45;;;;;;;11.30;7.90;;;;;;;26.44;22.77;97993.85;116590;1181;58721;-69
2021/10/30 11:06:15;;;;;;;11.20;8.00;;;;;;;26.41;22.64;97992.89;116820;1178;58701;-69
2021/10/30 11:08:46;;;;;;;14.60;9.00;;;;;;;27.00;22.00;97990.02;116787;1180;71188;-68
2021/10/30 11:11:16;;;;;;;10.70;8.40;;;;;;;26.56;22.43;97986.00;116781;1178;68442;-70
2021/10/30 11:14:03;;;;;;;12.70;9.00;;;;;;;26.26;22.64;97984.03;116808;1178;68318;-69
2021/10/30 11:16:44;;;;;;;13.30;8.70;;;;;;;26.57;22.62;97985.21;116693;1179;58736;-70
2021/10/30 11:19:27;;;;;;;13.50;9.20;;;;;;;26.72;22.23;97980.98;116816;1175;58786;-70
2021/10/30 11:22:15;;;;;;;14.80;8.60;;;;;;;27.31;21.38;97976.60;116782;1179;70985;-70
2021/10/30 11:24:54;;;;;;;12.00;8.90;;;;;;;26.64;22.21;97979.14;116800;1179;67962;-69
2021/10/30 11:27:24;;;;;;;12.90;9.00;;;;;;;26.08;22.82;97978.03;116694;1179;69438;-69
2021/10/30 11:29:54;;;;;;;12.90;8.90;;;;;;;26.39;22.52;97977.14;116714;1179;58734;-69
2021/10/30 11:32:23;;;;;;;13.90;9.30;;;;;;;26.53;22.15;97971.52;116627;1181;58755;-69